createdAt,value
2023-03-05T06:02:57.613Z,1.15
2023-03-05T06:05:28.252Z,1.63
2023-03-05T06:08:04.620Z,1.40
2023-03-05T06:10:34.694Z,1.60
2023-03-05T06:13:11.535Z,1.33
2023-03-05T06:15:41.773Z,1.48
2023-03-05T06:18:20.599Z,1.35
2023-03-05T06:21:04.659Z,1.90
2023-03-05T06:23:35.319Z,1.67
2023-03-05T06:26:15.580Z,1.48
2023-03-05T06:28:46.048Z,1.70
2023-03-05T06:31:25.825Z,1.60
2023-03-05T06:34:09.678Z,1.90
2023-03-05T06:36:43.716Z,1.83
2023-03-05T06:39:20.606Z,1.83
2023-03-05T06:42:00.636Z,1.90
2023-03-05T06:44:30.921Z,2.13
2023-03-05T06:47:07.671Z,2.10
2023-03-05T06:49:41.374Z,2.90
2023-03-05T06:52:19.991Z,2.28
2023-03-05T06:54:50.272Z,2.42
2023-03-05T06:57:26.696Z,3.05
2023-03-05T07:00:03.663Z,2.40
2023-03-05T07:02:34.422Z,2.60
2023-03-05T07:05:14.674Z,2.13
2023-03-05T07:07:44.692Z,2.08
2023-03-05T07:10:21.599Z,2.63
2023-03-05T07:12:51.705Z,2.35
2023-03-05T07:15:28.616Z,2.58
2023-03-05T07:18:05.599Z,3.10
2023-03-05T07:20:40.407Z,3.00
2023-03-05T07:23:16.649Z,3.92
2023-03-05T07:25:46.639Z,3.90
2023-03-05T07:28:23.651Z,3.58
2023-03-05T07:31:06.728Z,3.03
2023-03-05T07:33:37.918Z,3.13
2023-03-05T07:36:18.683Z,2.75
2023-03-05T07:38:49.200Z,2.80
2023-03-05T07:41:29.670Z,2.60
2023-03-05T07:44:03.555Z,2.90
2023-03-05T07:46:43.678Z,2.90
2023-03-05T07:49:17.583Z,3.25
2023-03-05T07:51:56.748Z,3.00
2023-03-05T07:54:26.805Z,3.20
2023-03-05T07:57:04.739Z,3.28
2023-03-05T07:59:35.276Z,3.80
2023-03-05T08:02:12.784Z,3.63
2023-03-05T08:04:43.349Z,4.03
2023-03-05T08:07:24.701Z,3.60
2023-03-05T08:09:54.679Z,3.47
2023-03-05T08:12:31.964Z,2.90
2023-03-05T08:15:02.172Z,3.25
2023-03-05T08:17:38.692Z,3.38
2023-03-05T08:20:11.820Z,3.08
2023-03-05T08:22:50.711Z,3.00
2023-03-05T08:25:21.275Z,2.78
2023-03-05T08:27:58.865Z,2.58
2023-03-05T08:30:29.723Z,2.40
2023-03-05T08:33:06.789Z,2.50
2023-03-05T08:35:36.971Z,2.40
2023-03-05T08:38:16.735Z,2.20
2023-03-05T08:40:46.901Z,2.72
2023-03-05T08:43:23.755Z,2.60
2023-03-05T08:45:54.087Z,2.00
2023-03-05T08:48:30.774Z,1.83
2023-03-05T08:51:00.895Z,2.03
2023-03-05T08:53:39.736Z,1.73
2023-03-05T08:56:18.768Z,1.60
2023-03-05T08:58:49.381Z,1.40
2023-03-05T09:01:25.856Z,2.10
2023-03-05T09:03:55.952Z,1.35
2023-03-05T09:06:32.756Z,1.50
2023-03-05T09:09:05.378Z,1.40
2023-03-05T09:11:42.840Z,1.20
2023-03-05T09:14:13.855Z,1.20
2023-03-05T09:16:50.875Z,1.60
2023-03-05T09:19:20.944Z,1.35
2023-03-05T09:21:57.822Z,1.60
2023-03-05T09:24:37.830Z,2.00
2023-03-05T09:27:08.603Z,1.80
2023-03-05T09:29:44.885Z,2.35
2023-03-05T09:32:21.910Z,8.10
2023-03-05T09:34:52.028Z,3.30
2023-03-05T09:37:28.840Z,8.95
2023-03-05T09:40:01.610Z,3.63
2023-03-05T09:42:54.848Z,2.35
2023-03-05T09:45:30.771Z,1.88
2023-03-05T09:48:21.875Z,1.70
2023-03-05T09:51:03.850Z,1.65
2023-03-05T09:53:41.987Z,1.70
2023-03-05T09:56:26.820Z,1.60
2023-03-05T09:59:00.563Z,1.55
2023-03-05T10:01:44.892Z,1.70
2023-03-05T10:04:19.270Z,1.50
2023-03-05T10:07:02.838Z,1.55
2023-03-05T10:09:48.592Z,1.60
2023-03-05T10:12:35.882Z,1.55
2023-03-05T10:15:06.295Z,1.50
2023-03-05T10:18:13.869Z,1.50
2023-03-05T10:21:01.519Z,1.90
2023-03-05T10:24:02.854Z,1.75
2023-03-05T10:27:08.003Z,1.85
2023-03-05T10:30:06.774Z,1.77
2023-03-05T10:32:58.871Z,1.90
2023-03-05T10:35:54.126Z,1.90
2023-03-05T10:38:54.886Z,2.10
2023-03-05T10:41:38.935Z,1.83
2023-03-05T10:44:16.663Z,1.92
2023-03-05T10:46:57.862Z,1.98
2023-03-05T10:49:39.970Z,1.90
2023-03-05T10:52:18.756Z,1.50
2023-03-05T10:54:55.020Z,1.27
2023-03-05T10:57:33.950Z,1.35
2023-03-05T11:00:20.963Z,1.58
2023-03-05T11:03:10.981Z,1.70
2023-03-05T11:05:56.904Z,1.30
2023-03-05T11:08:35.374Z,0.80
2023-03-05T11:11:26.986Z,0.70
2023-03-05T11:14:07.046Z,0.73
2023-03-05T11:16:49.613Z,0.60
2023-03-05T11:19:39.944Z,0.65
2023-03-05T11:22:25.943Z,0.90
2023-03-05T11:25:19.156Z,0.80
2023-03-05T11:28:00.982Z,0.80
2023-03-05T11:30:39.998Z,0.90
2023-03-05T11:33:12.702Z,0.90
2023-03-05T11:35:53.054Z,0.93
2023-03-05T11:38:26.497Z,1.17
2023-03-05T11:41:06.056Z,1.23
2023-03-05T11:43:38.792Z,1.25
2023-03-05T11:46:15.022Z,1.52
2023-03-05T11:48:54.956Z,1.55
2023-03-05T11:51:34.478Z,1.60
2023-03-05T11:54:21.993Z,1.98
2023-03-05T11:57:00.020Z,1.50
2023-03-05T11:59:34.688Z,1.27
2023-03-05T12:02:11.025Z,1.38
2023-03-05T12:04:48.105Z,1.40
2023-03-05T12:07:26.861Z,0.85
2023-03-05T12:10:04.986Z,1.08
2023-03-05T12:12:51.143Z,1.10
2023-03-05T12:15:45.103Z,1.23
2023-03-05T12:18:40.732Z,1.30
2023-03-05T12:21:26.091Z,1.40
2023-03-05T12:24:02.085Z,1.83
2023-03-05T12:27:18.198Z,1.40
2023-03-05T12:29:58.058Z,1.20
2023-03-05T12:33:01.420Z,1.40
2023-03-05T12:35:43.128Z,1.50
2023-03-05T12:38:41.490Z,1.50
2023-03-05T12:41:43.011Z,1.73
2023-03-05T12:44:31.116Z,1.90
2023-03-05T12:47:28.810Z,1.73
